sensor_id;sensor_type;location;lat;lon;timestamp;P1;durP1;ratioP1;P2;durP2;ratioP2
26820;SDS011;37186;51.394;5.454;2023-06-10T00:01:29;27.90;;;26.95;;
26820;SDS011;37186;51.394;5.454;2023-06-10T00:04:30;27.92;;;26.98;;
26820;SDS011;37186;51.394;5.454;2023-06-10T00:07:30;26.70;;;25.80;;
26820;SDS011;37186;51.394;5.454;2023-06-10T00:10:31;26.95;;;26.05;;
26820;SDS011;37186;51.394;5.454;2023-06-10T00:13:31;27.13;;;26.23;;
26820;SDS011;37186;51.394;5.454;2023-06-10T00:16:32;26.70;;;25.80;;
26820;SDS011;37186;51.394;5.454;2023-06-10T00:19:33;26.50;;;25.60;;
26820;SDS011;37186;51.394;5.454;2023-06-10T00:22:35;27.38;;;26.48;;
26820;SDS011;37186;51.394;5.454;2023-06-10T00:25:35;29.50;;;28.50;;
26820;SDS011;37186;51.394;5.454;2023-06-10T00:28:36;30.42;;;29.35;;
26820;SDS011;37186;51.394;5.454;2023-06-10T00:31:37;30.60;;;29.55;;
26820;SDS011;37186;51.394;5.454;2023-06-10T00:34:37;30.63;;;29.52;;
26820;SDS011;37186;51.394;5.454;2023-06-10T00:37:38;29.17;;;28.17;;
26820;SDS011;37186;51.394;5.454;2023-06-10T00:40:39;31.55;;;30.45;;
26820;SDS011;37186;51.394;5.454;2023-06-10T00:43:43;31.15;;;30.05;;
26820;SDS011;37186;51.394;5.454;2023-06-10T00:46:44;32.38;;;31.25;;
26820;SDS011;37186;51.394;5.454;2023-06-10T00:49:45;30.52;;;29.45;;
26820;SDS011;37186;51.394;5.454;2023-06-10T00:52:46;30.73;;;29.63;;
26820;SDS011;37186;51.394;5.454;2023-06-10T00:55:48;29.88;;;28.80;;
26820;SDS011;37186;51.394;5.454;2023-06-10T00:58:49;30.50;;;29.40;;
26820;SDS011;37186;51.394;5.454;2023-06-10T01:01:50;25.85;;;24.95;;
26820;SDS011;37186;51.394;5.454;2023-06-10T01:04:52;23.02;;;22.23;;
26820;SDS011;37186;51.394;5.454;2023-06-10T01:11:19;25.25;;;24.35;;
26820;SDS011;37186;51.394;5.454;2023-06-10T01:14:23;25.00;;;24.10;;
26820;SDS011;37186;51.394;5.454;2023-06-10T01:17:25;24.90;;;24.00;;
26820;SDS011;37186;51.394;5.454;2023-06-10T01:20:27;23.33;;;22.52;;
26820;SDS011;37186;51.394;5.454;2023-06-10T01:23:32;20.40;;;19.70;;
26820;SDS011;37186;51.394;5.454;2023-06-10T01:26:33;20.73;;;20.02;;
26820;SDS011;37186;51.394;5.454;2023-06-10T01:29:36;19.98;;;19.27;;
26820;SDS011;37186;51.394;5.454;2023-06-10T01:32:45;17.80;;;17.20;;
26820;SDS011;37186;51.394;5.454;2023-06-10T01:35:49;18.70;;;18.10;;
26820;SDS011;37186;51.394;5.454;2023-06-10T01:38:50;16.90;;;16.38;;
26820;SDS011;37186;51.394;5.454;2023-06-10T01:41:53;18.27;;;17.67;;
26820;SDS011;37186;51.394;5.454;2023-06-10T01:44:54;16.45;;;15.95;;
26820;SDS011;37186;51.394;5.454;2023-06-10T01:47:54;15.70;;;15.20;;
26820;SDS011;37186;51.394;5.454;2023-06-10T01:50:55;15.82;;;15.32;;
26820;SDS011;37186;51.394;5.454;2023-06-10T01:53:56;16.63;;;16.13;;
26820;SDS011;37186;51.394;5.454;2023-06-10T01:56:56;14.57;;;14.13;;
26820;SDS011;37186;51.394;5.454;2023-06-10T01:59:57;14.85;;;14.35;;
26820;SDS011;37186;51.394;5.454;2023-06-10T02:02:57;13.55;;;13.15;;
26820;SDS011;37186;51.394;5.454;2023-06-10T02:05:58;13.82;;;13.43;;
26820;SDS011;37186;51.394;5.454;2023-06-10T02:08:58;13.70;;;13.30;;
26820;SDS011;37186;51.394;5.454;2023-06-10T02:11:59;13.40;;;13.00;;
26820;SDS011;37186;51.394;5.454;2023-06-10T02:14:59;13.63;;;13.23;;
26820;SDS011;37186;51.394;5.454;2023-06-10T02:18:00;13.32;;;12.93;;
26820;SDS011;37186;51.394;5.454;2023-06-10T02:21:00;13.73;;;13.32;;
26820;SDS011;37186;51.394;5.454;2023-06-10T02:24:01;14.18;;;13.77;;
26820;SDS011;37186;51.394;5.454;2023-06-10T02:27:01;14.85;;;14.35;;
26820;SDS011;37186;51.394;5.454;2023-06-10T02:30:03;15.32;;;14.82;;
26820;SDS011;37186;51.394;5.454;2023-06-10T02:33:04;15.82;;;15.32;;
26820;SDS011;37186;51.394;5.454;2023-06-10T02:36:05;16.70;;;16.20;;
26820;SDS011;37186;51.394;5.454;2023-06-10T02:39:06;15.65;;;15.15;;
26820;SDS011;37186;51.394;5.454;2023-06-10T02:42:07;16.63;;;16.13;;
26820;SDS011;37186;51.394;5.454;2023-06-10T02:45:08;15.45;;;14.95;;
26820;SDS011;37186;51.394;5.454;2023-06-10T02:48:08;15.80;;;15.30;;
26820;SDS011;37186;51.394;5.454;2023-06-10T02:51:09;16.55;;;16.05;;
26820;SDS011;37186;51.394;5.454;2023-06-10T02:54:10;15.95;;;15.45;;
26820;SDS011;37186;51.394;5.454;2023-06-10T02:57:11;15.75;;;15.25;;
26820;SDS011;37186;51.394;5.454;2023-06-10T03:00:11;15.90;;;15.40;;
26820;SDS011;37186;51.394;5.454;2023-06-10T03:03:14;15.02;;;14.55;;
26820;SDS011;37186;51.394;5.454;2023-06-10T03:06:14;15.73;;;15.23;;
26820;SDS011;37186;51.394;5.454;2023-06-10T03:09:15;15.82;;;15.32;;
26820;SDS011;37186;51.394;5.454;2023-06-10T03:12:15;16.63;;;16.13;;
26820;SDS011;37186;51.394;5.454;2023-06-10T03:15:16;16.73;;;16.23;;
26820;SDS011;37186;51.394;5.454;2023-06-10T03:18:17;18.95;;;18.35;;
26820;SDS011;37186;51.394;5.454;2023-06-10T03:21:17;19.23;;;18.63;;
26820;SDS011;37186;51.394;5.454;2023-06-10T03:24:18;18.95;;;18.35;;
26820;SDS011;37186;51.394;5.454;2023-06-10T03:27:18;17.45;;;16.92;;
26820;SDS011;37186;51.394;5.454;2023-06-10T03:30:19;18.90;;;18.30;;
26820;SDS011;37186;51.394;5.454;2023-06-10T03:33:20;19.63;;;19.02;;
26820;SDS011;37186;51.394;5.454;2023-06-10T03:36:20;19.15;;;18.55;;
26820;SDS011;37186;51.394;5.454;2023-06-10T03:39:21;19.27;;;18.67;;
26820;SDS011;37186;51.394;5.454;2023-06-10T03:42:23;19.80;;;19.20;;
26820;SDS011;37186;51.394;5.454;2023-06-10T03:45:24;18.33;;;17.73;;
26820;SDS011;37186;51.394;5.454;2023-06-10T03:48:24;17.80;;;17.20;;
26820;SDS011;37186;51.394;5.454;2023-06-10T03:51:25;20.17;;;19.52;;
26820;SDS011;37186;51.394;5.454;2023-06-10T03:54:26;18.30;;;17.70;;
26820;SDS011;37186;51.394;5.454;2023-06-10T03:57:26;20.65;;;19.95;;
26820;SDS011;37186;51.394;5.454;2023-06-10T04:00:27;19.13;;;18.52;;
26820;SDS011;37186;51.394;5.454;2023-06-10T04:03:28;20.83;;;20.13;;
26820;SDS011;37186;51.394;5.454;2023-06-10T04:06:30;20.30;;;19.60;;
26820;SDS011;37186;51.394;5.454;2023-06-10T04:09:31;21.42;;;20.73;;
26820;SDS011;37186;51.394;5.454;2023-06-10T04:12:32;21.13;;;20.42;;
26820;SDS011;37186;51.394;5.454;2023-06-10T04:15:32;20.70;;;20.00;;
26820;SDS011;37186;51.394;5.454;2023-06-10T04:18:33;21.73;;;21.02;;
26820;SDS011;37186;51.394;5.454;2023-06-10T04:21:33;21.60;;;20.90;;
26820;SDS011;37186;51.394;5.454;2023-06-10T04:24:35;23.00;;;22.20;;
26820;SDS011;37186;51.394;5.454;2023-06-10T04:27:36;23.73;;;22.92;;
26820;SDS011;37186;51.394;5.454;2023-06-10T04:30:37;24.77;;;23.90;;
26820;SDS011;37186;51.394;5.454;2023-06-10T04:33:37;25.20;;;24.30;;
26820;SDS011;37186;51.394;5.454;2023-06-10T04:36:38;25.48;;;24.58;;
26820;SDS011;37186;51.394;5.454;2023-06-10T04:39:38;25.52;;;24.63;;
26820;SDS011;37186;51.394;5.454;2023-06-10T04:42:39;23.13;;;22.33;;
26820;SDS011;37186;51.394;5.454;2023-06-10T04:45:40;24.02;;;23.23;;
26820;SDS011;37186;51.394;5.454;2023-06-10T04:48:44;21.85;;;21.15;;
26820;SDS011;37186;51.394;5.454;2023-06-10T04:51:46;21.27;;;20.58;;
26820;SDS011;37186;51.394;5.454;2023-06-10T04:54:47;20.23;;;19.58;;
26820;SDS011;37186;51.394;5.454;2023-06-10T04:57:48;19.35;;;18.75;;
26820;SDS011;37186;51.394;5.454;2023-06-10T05:00:50;19.88;;;19.27;;
26820;SDS011;37186;51.394;5.454;2023-06-10T05:03:51;20.90;;;20.20;;
26820;SDS011;37186;51.394;5.454;2023-06-10T05:06:51;20.05;;;19.42;;
26820;SDS011;37186;51.394;5.454;2023-06-10T05:09:53;20.63;;;19.92;;
26820;SDS011;37186;51.394;5.454;2023-06-10T05:12:53;19.90;;;19.27;;
26820;SDS011;37186;51.394;5.454;2023-06-10T05:15:54;21.63;;;20.92;;
26820;SDS011;37186;51.394;5.454;2023-06-10T05:18:54;22.45;;;21.73;;
26820;SDS011;37186;51.394;5.454;2023-06-10T05:21:55;24.15;;;23.35;;
26820;SDS011;37186;51.394;5.454;2023-06-10T05:24:55;25.90;;;25.00;;
26820;SDS011;37186;51.394;5.454;2023-06-10T05:27:56;26.27;;;25.38;;
26820;SDS011;37186;51.394;5.454;2023-06-10T05:30:57;25.55;;;24.65;;
26820;SDS011;37186;51.394;5.454;2023-06-10T05:33:57;24.42;;;23.63;;
26820;SDS011;37186;51.394;5.454;2023-06-10T05:36:58;22.50;;;21.80;;
26820;SDS011;37186;51.394;5.454;2023-06-10T05:39:58;23.77;;;22.98;;
26820;SDS011;37186;51.394;5.454;2023-06-10T05:42:59;20.65;;;19.95;;
26820;SDS011;37186;51.394;5.454;2023-06-10T05:45:59;20.83;;;20.13;;
26820;SDS011;37186;51.394;5.454;2023-06-10T05:49:00;19.67;;;19.08;;
26820;SDS011;37186;51.394;5.454;2023-06-10T05:52:00;19.25;;;18.65;;
26820;SDS011;37186;51.394;5.454;2023-06-10T05:55:04;18.65;;;18.05;;
26820;SDS011;37186;51.394;5.454;2023-06-10T05:58:05;19.15;;;18.55;;
26820;SDS011;37186;51.394;5.454;2023-06-10T06:01:06;19.58;;;18.98;;
26820;SDS011;37186;51.394;5.454;2023-06-10T06:04:06;18.52;;;17.92;;
26820;SDS011;37186;51.394;5.454;2023-06-10T06:07:07;17.20;;;16.67;;
26820;SDS011;37186;51.394;5.454;2023-06-10T06:10:07;17.15;;;16.63;;
26820;SDS011;37186;51.394;5.454;2023-06-10T06:13:08;17.67;;;17.08;;
26820;SDS011;37186;51.394;5.454;2023-06-10T06:16:08;17.48;;;16.95;;
26820;SDS011;37186;51.394;5.454;2023-06-10T06:19:09;16.70;;;16.20;;
26820;SDS011;37186;51.394;5.454;2023-06-10T06:22:11;16.42;;;15.93;;
26820;SDS011;37186;51.394;5.454;2023-06-10T06:25:11;68.93;;;66.30;;
26820;SDS011;37186;51.394;5.454;2023-06-10T06:28:12;22.08;;;21.38;;
26820;SDS011;37186;51.394;5.454;2023-06-10T06:31:13;19.38;;;18.77;;
26820;SDS011;37186;51.394;5.454;2023-06-10T06:34:13;19.98;;;19.35;;
26820;SDS011;37186;51.394;5.454;2023-06-10T06:37:14;19.48;;;18.88;;
26820;SDS011;37186;51.394;5.454;2023-06-10T06:40:14;18.02;;;17.42;;
26820;SDS011;37186;51.394;5.454;2023-06-10T06:43:15;18.15;;;17.55;;
26820;SDS011;37186;51.394;5.454;2023-06-10T06:46:17;15.38;;;14.88;;
26820;SDS011;37186;51.394;5.454;2023-06-10T06:49:17;17.05;;;16.55;;
26820;SDS011;37186;51.394;5.454;2023-06-10T06:52:18;15.38;;;14.88;;
26820;SDS011;37186;51.394;5.454;2023-06-10T06:55:19;15.63;;;15.13;;
26820;SDS011;37186;51.394;5.454;2023-06-10T06:58:19;14.77;;;14.35;;
26820;SDS011;37186;51.394;5.454;2023-06-10T07:01:20;15.98;;;15.48;;
26820;SDS011;37186;51.394;5.454;2023-06-10T07:04:21;14.32;;;13.93;;
26820;SDS011;37186;51.394;5.454;2023-06-10T07:07:22;14.00;;;13.60;;
26820;SDS011;37186;51.394;5.454;2023-06-10T07:10:23;14.27;;;13.88;;
26820;SDS011;37186;51.394;5.454;2023-06-10T07:13:24;15.48;;;14.98;;
26820;SDS011;37186;51.394;5.454;2023-06-10T07:16:25;16.40;;;15.90;;
26820;SDS011;37186;51.394;5.454;2023-06-10T07:19:25;13.80;;;13.40;;
26820;SDS011;37186;51.394;5.454;2023-06-10T07:22:26;14.88;;;14.43;;
26820;SDS011;37186;51.394;5.454;2023-06-10T07:25:26;14.13;;;13.73;;
26820;SDS011;37186;51.394;5.454;2023-06-10T07:28:27;15.63;;;15.13;;
26820;SDS011;37186;51.394;5.454;2023-06-10T07:31:28;14.13;;;13.73;;
26820;SDS011;37186;51.394;5.454;2023-06-10T07:34:28;13.38;;;12.98;;
26820;SDS011;37186;51.394;5.454;2023-06-10T07:37:29;14.50;;;14.05;;
26820;SDS011;37186;51.394;5.454;2023-06-10T07:40:30;13.68;;;13.27;;
26820;SDS011;37186;51.394;5.454;2023-06-10T07:43:30;14.85;;;14.40;;
26820;SDS011;37186;51.394;5.454;2023-06-10T07:46:31;13.98;;;13.57;;
26820;SDS011;37186;51.394;5.454;2023-06-10T07:49:31;14.73;;;14.27;;
26820;SDS011;37186;51.394;5.454;2023-06-10T07:52:32;14.32;;;13.90;;
26820;SDS011;37186;51.394;5.454;2023-06-10T07:55:32;14.60;;;14.15;;
26820;SDS011;37186;51.394;5.454;2023-06-10T07:58:33;15.85;;;15.35;;
26820;SDS011;37186;51.394;5.454;2023-06-10T08:01:33;15.35;;;14.88;;
26820;SDS011;37186;51.394;5.454;2023-06-10T08:04:35;15.48;;;14.98;;
26820;SDS011;37186;51.394;5.454;2023-06-10T08:07:36;17.52;;;16.98;;
26820;SDS011;37186;51.394;5.454;2023-06-10T08:10:36;20.58;;;19.90;;
26820;SDS011;37186;51.394;5.454;2023-06-10T08:13:37;19.60;;;18.98;;
26820;SDS011;37186;51.394;5.454;2023-06-10T08:16:38;22.05;;;21.33;;
26820;SDS011;37186;51.394;5.454;2023-06-10T08:19:38;21.85;;;21.13;;
26820;SDS011;37186;51.394;5.454;2023-06-10T08:22:39;25.45;;;24.60;;
26820;SDS011;37186;51.394;5.454;2023-06-10T08:25:39;27.80;;;26.85;;
26820;SDS011;37186;51.394;5.454;2023-06-10T08:28:40;28.88;;;27.90;;
26820;SDS011;37186;51.394;5.454;2023-06-10T08:31:41;30.00;;;28.95;;
26820;SDS011;37186;51.394;5.454;2023-06-10T08:34:44;31.27;;;30.20;;
26820;SDS011;37186;51.394;5.454;2023-06-10T08:37:45;30.60;;;29.55;;
26820;SDS011;37186;51.394;5.454;2023-06-10T08:40:46;30.85;;;29.80;;
26820;SDS011;37186;51.394;5.454;2023-06-10T08:47:13;32.55;;;31.42;;
26820;SDS011;37186;51.394;5.454;2023-06-10T08:50:15;29.98;;;28.98;;
26820;SDS011;37186;51.394;5.454;2023-06-10T08:53:18;27.70;;;26.80;;
26820;SDS011;37186;51.394;5.454;2023-06-10T08:56:19;26.63;;;25.73;;
26820;SDS011;37186;51.394;5.454;2023-06-10T08:59:21;29.35;;;28.35;;
26820;SDS011;37186;51.394;5.454;2023-06-10T09:02:22;27.58;;;26.67;;
26820;SDS011;37186;51.394;5.454;2023-06-10T09:05:24;24.90;;;24.08;;
26820;SDS011;37186;51.394;5.454;2023-06-10T09:08:26;24.17;;;23.38;;
26820;SDS011;37186;51.394;5.454;2023-06-10T09:11:27;21.25;;;20.55;;
26820;SDS011;37186;51.394;5.454;2023-06-10T09:14:28;20.58;;;19.90;;
26820;SDS011;37186;51.394;5.454;2023-06-10T09:17:28;21.17;;;20.48;;
26820;SDS011;37186;51.394;5.454;2023-06-10T09:20:29;19.70;;;19.08;;
26820;SDS011;37186;51.394;5.454;2023-06-10T09:23:30;20.30;;;19.65;;
26820;SDS011;37186;51.394;5.454;2023-06-10T09:26:30;17.40;;;16.88;;
26820;SDS011;37186;51.394;5.454;2023-06-10T09:29:31;21.00;;;20.30;;
26820;SDS011;37186;51.394;5.454;2023-06-10T09:32:56;18.52;;;17.92;;
26820;SDS011;37186;51.394;5.454;2023-06-10T09:35:59;22.10;;;21.40;;
26820;SDS011;37186;51.394;5.454;2023-06-10T09:39:02;24.23;;;23.42;;
26820;SDS011;37186;51.394;5.454;2023-06-10T09:42:15;26.10;;;25.23;;
26820;SDS011;37186;51.394;5.454;2023-06-10T09:45:16;24.83;;;24.00;;
26820;SDS011;37186;51.394;5.454;2023-06-10T09:48:16;26.25;;;25.35;;
26820;SDS011;37186;51.394;5.454;2023-06-10T09:51:17;24.08;;;23.27;;
26820;SDS011;37186;51.394;5.454;2023-06-10T09:54:18;25.33;;;24.50;;
26820;SDS011;37186;51.394;5.454;2023-06-10T09:57:19;27.50;;;26.58;;
26820;SDS011;37186;51.394;5.454;2023-06-10T10:00:22;24.52;;;23.73;;
26820;SDS011;37186;51.394;5.454;2023-06-10T10:03:22;26.55;;;25.67;;
26820;SDS011;37186;51.394;5.454;2023-06-10T10:06:23;26.00;;;25.13;;
26820;SDS011;37186;51.394;5.454;2023-06-10T10:09:25;26.65;;;25.75;;
26820;SDS011;37186;51.394;5.454;2023-06-10T10:12:25;29.40;;;28.40;;
26820;SDS011;37186;51.394;5.454;2023-06-10T10:15:29;29.50;;;28.50;;
26820;SDS011;37186;51.394;5.454;2023-06-10T10:18:32;30.05;;;29.05;;
26820;SDS011;37186;51.394;5.454;2023-06-10T10:21:37;31.25;;;30.17;;
26820;SDS011;37186;51.394;5.454;2023-06-10T10:24:49;29.98;;;28.98;;
26820;SDS011;37186;51.394;5.454;2023-06-10T10:27:52;31.08;;;30.02;;
26820;SDS011;37186;51.394;5.454;2023-06-10T10:30:59;31.88;;;30.77;;
26820;SDS011;37186;51.394;5.454;2023-06-10T10:34:06;32.00;;;30.90;;
26820;SDS011;37186;51.394;5.454;2023-06-10T10:37:12;29.63;;;28.63;;
26820;SDS011;37186;51.394;5.454;2023-06-10T10:40:12;32.55;;;31.45;;
26820;SDS011;37186;51.394;5.454;2023-06-10T10:43:14;35.47;;;34.25;;
26820;SDS011;37186;51.394;5.454;2023-06-10T10:46:16;33.55;;;32.38;;
26820;SDS011;37186;51.394;5.454;2023-06-10T10:49:17;34.53;;;33.33;;
26820;SDS011;37186;51.394;5.454;2023-06-10T10:52:19;33.03;;;31.88;;
26820;SDS011;37186;51.394;5.454;2023-06-10T10:55:19;27.80;;;26.88;;
26820;SDS011;37186;51.394;5.454;2023-06-10T10:58:24;29.15;;;28.15;;
26820;SDS011;37186;51.394;5.454;2023-06-10T11:01:25;29.58;;;28.58;;
26820;SDS011;37186;51.394;5.454;2023-06-10T11:04:44;28.35;;;27.35;;
26820;SDS011;37186;51.394;5.454;2023-06-10T11:07:52;26.63;;;25.73;;
26820;SDS011;37186;51.394;5.454;2023-06-10T11:10:55;28.52;;;27.52;;
26820;SDS011;37186;51.394;5.454;2023-06-10T11:17:04;26.98;;;26.08;;
26820;SDS011;37186;51.394;5.454;2023-06-10T11:20:41;23.45;;;22.65;;
26820;SDS011;37186;51.394;5.454;2023-06-10T11:23:48;23.92;;;23.13;;
26820;SDS011;37186;51.394;5.454;2023-06-10T11:26:50;23.70;;;22.90;;
26820;SDS011;37186;51.394;5.454;2023-06-10T11:33:00;19.77;;;19.17;;
26820;SDS011;37186;51.394;5.454;2023-06-10T11:36:01;17.73;;;17.15;;
26820;SDS011;37186;51.394;5.454;2023-06-10T11:39:08;15.70;;;15.20;;
26820;SDS011;37186;51.394;5.454;2023-06-10T11:42:09;14.80;;;14.35;;
26820;SDS011;37186;51.394;5.454;2023-06-10T11:45:14;15.18;;;14.68;;
26820;SDS011;37186;51.394;5.454;2023-06-10T11:48:16;13.95;;;13.55;;
26820;SDS011;37186;51.394;5.454;2023-06-10T11:51:16;15.07;;;14.60;;
26820;SDS011;37186;51.394;5.454;2023-06-10T11:54:17;12.80;;;12.40;;
26820;SDS011;37186;51.394;5.454;2023-06-10T11:57:18;13.82;;;13.43;;
26820;SDS011;37186;51.394;5.454;2023-06-10T12:00:18;13.52;;;13.13;;
26820;SDS011;37186;51.394;5.454;2023-06-10T12:03:20;15.90;;;15.40;;
26820;SDS011;37186;51.394;5.454;2023-06-10T12:06:22;18.45;;;17.85;;
26820;SDS011;37186;51.394;5.454;2023-06-10T12:12:23;18.55;;;17.95;;
26820;SDS011;37186;51.394;5.454;2023-06-10T12:15:23;18.92;;;18.33;;
26820;SDS011;37186;51.394;5.454;2023-06-10T12:18:25;16.73;;;16.20;;
26820;SDS011;37186;51.394;5.454;2023-06-10T12:21:26;21.98;;;21.27;;
26820;SDS011;37186;51.394;5.454;2023-06-10T12:24:27;22.55;;;21.75;;
26820;SDS011;37186;51.394;5.454;2023-06-10T12:27:28;22.90;;;22.15;;
26820;SDS011;37186;51.394;5.454;2023-06-10T12:30:30;22.02;;;21.33;;
26820;SDS011;37186;51.394;5.454;2023-06-10T12:33:31;23.35;;;22.55;;
26820;SDS011;37186;51.394;5.454;2023-06-10T12:36:32;22.27;;;21.55;;
26820;SDS011;37186;51.394;5.454;2023-06-10T12:39:34;15.43;;;14.93;;
26820;SDS011;37186;51.394;5.454;2023-06-10T12:42:35;18.13;;;17.52;;
26820;SDS011;37186;51.394;5.454;2023-06-10T12:45:37;16.20;;;15.68;;
26820;SDS011;37186;51.394;5.454;2023-06-10T12:48:51;15.35;;;14.85;;
26820;SDS011;37186;51.394;5.454;2023-06-10T12:51:52;15.27;;;14.77;;
26820;SDS011;37186;51.394;5.454;2023-06-10T12:54:53;16.35;;;15.82;;
26820;SDS011;37186;51.394;5.454;2023-06-10T12:57:54;14.80;;;14.30;;
26820;SDS011;37186;51.394;5.454;2023-06-10T13:00:56;14.50;;;14.00;;
26820;SDS011;37186;51.394;5.454;2023-06-10T13:03:57;16.10;;;15.60;;
26820;SDS011;37186;51.394;5.454;2023-06-10T13:06:57;15.23;;;14.73;;
26820;SDS011;37186;51.394;5.454;2023-06-10T13:09:59;17.02;;;16.42;;
26820;SDS011;37186;51.394;5.454;2023-06-10T13:13:00;16.45;;;15.93;;
26820;SDS011;37186;51.394;5.454;2023-06-10T13:16:02;15.80;;;15.30;;
26820;SDS011;37186;51.394;5.454;2023-06-10T13:19:03;16.73;;;16.20;;
26820;SDS011;37186;51.394;5.454;2023-06-10T13:22:05;19.05;;;18.42;;
26820;SDS011;37186;51.394;5.454;2023-06-10T13:25:06;20.83;;;20.13;;
26820;SDS011;37186;51.394;5.454;2023-06-10T13:28:07;18.25;;;17.63;;
26820;SDS011;37186;51.394;5.454;2023-06-10T13:31:08;12.13;;;11.75;;
26820;SDS011;37186;51.394;5.454;2023-06-10T13:34:08;11.77;;;11.40;;
26820;SDS011;37186;51.394;5.454;2023-06-10T13:37:09;14.57;;;14.07;;
26820;SDS011;37186;51.394;5.454;2023-06-10T13:40:10;18.23;;;17.63;;
26820;SDS011;37186;51.394;5.454;2023-06-10T13:43:11;18.83;;;18.23;;
26820;SDS011;37186;51.394;5.454;2023-06-10T13:46:13;15.02;;;14.52;;
26820;SDS011;37186;51.394;5.454;2023-06-10T13:49:13;16.25;;;15.75;;
26820;SDS011;37186;51.394;5.454;2023-06-10T13:52:14;14.75;;;14.25;;
26820;SDS011;37186;51.394;5.454;2023-06-10T13:55:15;18.15;;;17.55;;
26820;SDS011;37186;51.394;5.454;2023-06-10T13:58:16;17.23;;;16.67;;
26820;SDS011;37186;51.394;5.454;2023-06-10T14:01:17;15.15;;;14.65;;
26820;SDS011;37186;51.394;5.454;2023-06-10T14:04:18;17.17;;;16.60;;
26820;SDS011;37186;51.394;5.454;2023-06-10T14:07:18;14.63;;;14.15;;
26820;SDS011;37186;51.394;5.454;2023-06-10T14:10:19;13.70;;;13.30;;
26820;SDS011;37186;51.394;5.454;2023-06-10T14:13:19;15.27;;;14.77;;
26820;SDS011;37186;51.394;5.454;2023-06-10T14:16:20;18.67;;;18.08;;
26820;SDS011;37186;51.394;5.454;2023-06-10T14:19:20;21.95;;;21.20;;
26820;SDS011;37186;51.394;5.454;2023-06-10T14:22:21;24.77;;;23.92;;
26820;SDS011;37186;51.394;5.454;2023-06-10T14:25:21;22.80;;;22.02;;
26820;SDS011;37186;51.394;5.454;2023-06-10T14:28:22;20.52;;;19.85;;
26820;SDS011;37186;51.394;5.454;2023-06-10T14:31:23;22.92;;;22.15;;
26820;SDS011;37186;51.394;5.454;2023-06-10T14:34:24;21.88;;;21.15;;
26820;SDS011;37186;51.394;5.454;2023-06-10T14:37:28;22.90;;;22.13;;
26820;SDS011;37186;51.394;5.454;2023-06-10T14:40:29;22.27;;;21.55;;
26820;SDS011;37186;51.394;5.454;2023-06-10T14:43:30;21.17;;;20.45;;
26820;SDS011;37186;51.394;5.454;2023-06-10T14:46:30;26.83;;;25.92;;
26820;SDS011;37186;51.394;5.454;2023-06-10T14:49:31;26.55;;;25.65;;
26820;SDS011;37186;51.394;5.454;2023-06-10T14:52:31;23.67;;;22.88;;
26820;SDS011;37186;51.394;5.454;2023-06-10T14:55:32;27.73;;;26.75;;
26820;SDS011;37186;51.394;5.454;2023-06-10T14:58:32;26.13;;;25.23;;
26820;SDS011;37186;51.394;5.454;2023-06-10T15:01:33;27.95;;;26.95;;
26820;SDS011;37186;51.394;5.454;2023-06-10T15:04:33;30.23;;;29.15;;
26820;SDS011;37186;51.394;5.454;2023-06-10T15:07:34;29.52;;;28.48;;
26820;SDS011;37186;51.394;5.454;2023-06-10T15:10:35;29.42;;;28.38;;
26820;SDS011;37186;51.394;5.454;2023-06-10T15:13:35;30.73;;;29.65;;
26820;SDS011;37186;51.394;5.454;2023-06-10T15:16:36;36.08;;;34.78;;
26820;SDS011;37186;51.394;5.454;2023-06-10T15:19:36;33.30;;;32.10;;
26820;SDS011;37186;51.394;5.454;2023-06-10T15:22:37;27.67;;;26.67;;
26820;SDS011;37186;51.394;5.454;2023-06-10T15:25:38;30.02;;;28.95;;
26820;SDS011;37186;51.394;5.454;2023-06-10T15:28:40;29.85;;;28.77;;
26820;SDS011;37186;51.394;5.454;2023-06-10T15:31:41;35.90;;;34.63;;
26820;SDS011;37186;51.394;5.454;2023-06-10T15:34:41;49.38;;;47.53;;
26820;SDS011;37186;51.394;5.454;2023-06-10T15:37:42;45.80;;;44.10;;
26820;SDS011;37186;51.394;5.454;2023-06-10T15:40:42;40.63;;;39.08;;
26820;SDS011;37186;51.394;5.454;2023-06-10T15:43:43;49.63;;;47.67;;
26820;SDS011;37186;51.394;5.454;2023-06-10T15:46:43;56.70;;;54.42;;
26820;SDS011;37186;51.394;5.454;2023-06-10T15:49:45;63.63;;;61.08;;
26820;SDS011;37186;51.394;5.454;2023-06-10T15:52:45;64.93;;;62.30;;
26820;SDS011;37186;51.394;5.454;2023-06-10T15:55:46;73.50;;;70.45;;
26820;SDS011;37186;51.394;5.454;2023-06-10T15:58:47;75.75;;;72.60;;
26820;SDS011;37186;51.394;5.454;2023-06-10T16:01:48;74.00;;;71.03;;
26820;SDS011;37186;51.394;5.454;2023-06-10T16:04:48;84.28;;;80.82;;
26820;SDS011;37186;51.394;5.454;2023-06-10T16:07:49;84.22;;;80.75;;
26820;SDS011;37186;51.394;5.454;2023-06-10T16:10:49;79.30;;;76.13;;
26820;SDS011;37186;51.394;5.454;2023-06-10T16:13:50;78.90;;;75.78;;
26820;SDS011;37186;51.394;5.454;2023-06-10T16:16:50;80.20;;;77.00;;
26820;SDS011;37186;51.394;5.454;2023-06-10T16:19:51;83.22;;;79.90;;
26820;SDS011;37186;51.394;5.454;2023-06-10T16:22:51;73.40;;;70.47;;
26820;SDS011;37186;51.394;5.454;2023-06-10T16:25:52;66.43;;;63.80;;
26820;SDS011;37186;51.394;5.454;2023-06-10T16:28:52;65.97;;;63.40;;
26820;SDS011;37186;51.394;5.454;2023-06-10T16:31:53;59.00;;;56.65;;
26820;SDS011;37186;51.394;5.454;2023-06-10T16:34:53;55.78;;;53.58;;
26820;SDS011;37186;51.394;5.454;2023-06-10T16:37:54;57.08;;;54.80;;
26820;SDS011;37186;51.394;5.454;2023-06-10T16:40:54;56.03;;;53.75;;
26820;SDS011;37186;51.394;5.454;2023-06-10T16:43:57;59.40;;;56.92;;
26820;SDS011;37186;51.394;5.454;2023-06-10T16:46:57;48.85;;;46.92;;
26820;SDS011;37186;51.394;5.454;2023-06-10T16:49:58;49.17;;;47.28;;
26820;SDS011;37186;51.394;5.454;2023-06-10T16:52:58;45.30;;;43.58;;
26820;SDS011;37186;51.394;5.454;2023-06-10T16:55:59;42.05;;;40.42;;
26820;SDS011;37186;51.394;5.454;2023-06-10T16:59:00;47.30;;;45.40;;
26820;SDS011;37186;51.394;5.454;2023-06-10T17:02:02;47.60;;;45.65;;
26820;SDS011;37186;51.394;5.454;2023-06-10T17:05:03;53.55;;;51.33;;
26820;SDS011;37186;51.394;5.454;2023-06-10T17:08:04;58.47;;;56.03;;
26820;SDS011;37186;51.394;5.454;2023-06-10T17:11:05;61.38;;;58.80;;
26820;SDS011;37186;51.394;5.454;2023-06-10T17:14:05;47.53;;;45.65;;
26820;SDS011;37186;51.394;5.454;2023-06-10T17:17:06;49.83;;;47.78;;
26820;SDS011;37186;51.394;5.454;2023-06-10T17:20:07;47.83;;;45.92;;
26820;SDS011;37186;51.394;5.454;2023-06-10T17:23:07;66.60;;;63.92;;
26820;SDS011;37186;51.394;5.454;2023-06-10T17:26:08;64.78;;;62.28;;
26820;SDS011;37186;51.394;5.454;2023-06-10T17:29:08;77.32;;;74.18;;
26820;SDS011;37186;51.394;5.454;2023-06-10T17:32:09;77.32;;;74.25;;
26820;SDS011;37186;51.394;5.454;2023-06-10T17:35:10;77.18;;;74.13;;
26820;SDS011;37186;51.394;5.454;2023-06-10T17:38:11;77.13;;;74.00;;
26820;SDS011;37186;51.394;5.454;2023-06-10T17:41:11;82.53;;;79.20;;
26820;SDS011;37186;51.394;5.454;2023-06-10T17:44:12;88.57;;;84.95;;
26820;SDS011;37186;51.394;5.454;2023-06-10T17:47:15;90.75;;;87.05;;
26820;SDS011;37186;51.394;5.454;2023-06-10T17:50:16;94.45;;;90.60;;
26820;SDS011;37186;51.394;5.454;2023-06-10T17:53:16;85.80;;;82.35;;
26820;SDS011;37186;51.394;5.454;2023-06-10T17:56:17;71.18;;;68.43;;